Time;durP1;ratioP1;P1;durP2;ratioP2;P2;SDS_P1;SDS_P2;PMS_P1;PMS_P2;Temp;Humidity;BMP_temperature;BMP_pressure;BME280_temperature;BME280_humidity;BME280_pressure;Samples;Min_cycle;Max_cycle;Signal;HPM_P1;HPM_P2
2023/04/14 00:01:25;;;;;;;53.38;26.00;;;;;;;;;;6281000;28;20044;-58
2023/04/14 00:04:26;;;;;;;52.60;25.85;;;;;;;;;;6285598;28;20348;-59
2023/04/14 00:07:26;;;;;;;56.13;26.73;;;;;;;;;;6268082;28;20057;-59
2023/04/14 00:10:28;;;;;;;55.25;28.05;;;;;;;;;;6281336;28;20063;-59
2023/04/14 00:13:29;;;;;;;58.70;29.67;;;;;;;;;;6277472;28;20041;-59
2023/04/14 00:16:29;;;;;;;59.78;29.00;;;;;;;;;;6269033;28;20703;-59
2023/04/14 00:19:30;;;;;;;54.15;29.33;;;;;;;;;;6272740;28;20487;-59
2023/04/14 00:22:31;;;;;;;56.35;28.10;;;;;;;;;;6277914;28;20693;-59
2023/04/14 00:25:31;;;;;;;49.60;26.35;;;;;;;;;;6270305;28;20049;-58
2023/04/14 00:28:32;;;;;;;51.35;26.42;;;;;;;;;;6283283;28;20045;-60
2023/04/14 00:31:32;;;;;;;52.95;25.35;;;;;;;;;;6281859;28;20052;-59
2023/04/14 00:34:33;;;;;;;53.30;25.48;;;;;;;;;;6274603;28;20118;-60
2023/04/14 00:37:34;;;;;;;51.03;25.48;;;;;;;;;;6285211;28;20484;-59
2023/04/14 00:40:34;;;;;;;51.83;26.08;;;;;;;;;;6285436;28;20106;-60
2023/04/14 00:43:35;;;;;;;53.47;26.65;;;;;;;;;;6267358;28;20053;-60
2023/04/14 00:46:36;;;;;;;52.85;27.60;;;;;;;;;;6286016;28;20491;-59
2023/04/14 00:49:36;;;;;;;54.72;26.45;;;;;;;;;;6278917;28;20543;-59
2023/04/14 00:52:38;;;;;;;54.88;26.42;;;;;;;;;;6270484;28;20557;-59
2023/04/14 00:55:40;;;;;;;52.17;25.73;;;;;;;;;;6269324;28;20045;-61
2023/04/14 00:58:41;;;;;;;;;;;;;;;;;;6271893;28;20796;-59
2023/04/14 01:01:41;;;;;;;49.42;26.00;;;;;;;;;;6270225;28;19931;-59
2023/04/14 01:04:43;;;;;;;52.78;26.05;;;;;;;;;;6268827;28;20117;-59
2023/04/14 01:07:44;;;;;;;57.00;28.20;;;;;;;;;;6287123;28;20457;-60
2023/04/14 01:10:54;;;;;;;59.97;28.67;;;;;;;;;;6288975;28;20143;-59
2023/04/14 01:14:12;;;;;;;53.88;25.85;;;;;;;;;;6274623;28;20298;-59
2023/04/14 01:17:36;;;;;;;57.30;28.20;;;;;;;;;;6273564;28;20044;-60
2023/04/14 01:20:44;;;;;;;63.90;31.02;;;;;;;;;;6283084;28;20835;-58
2023/04/14 01:24:15;;;;;;;63.78;29.55;;;;;;;;;;6289167;28;20047;-59
2023/04/14 01:27:45;;;;;;;55.33;27.85;;;;;;;;;;6273903;28;20136;-59
2023/04/14 01:31:09;;;;;;;58.72;31.15;;;;;;;;;;6271982;28;20057;-59
2023/04/14 01:34:21;;;;;;;54.40;27.90;;;;;;;;;;6270346;28;20633;-59
2023/04/14 01:37:33;;;;;;;63.38;31.38;;;;;;;;;;6271920;28;20139;-59
2023/04/14 01:40:34;;;;;;;54.83;27.67;;;;;;;;;;6276434;28;20075;-60
2023/04/14 01:43:42;;;;;;;55.05;26.75;;;;;;;;;;6270690;28;20561;-59
2023/04/14 01:46:45;;;;;;;52.92;26.77;;;;;;;;;;6291929;28;20648;-59
2023/04/14 01:49:50;;;;;;;56.72;27.17;;;;;;;;;;6281762;28;20048;-59
2023/04/14 01:52:53;;;;;;;53.65;27.30;;;;;;;;;;6284846;28;20076;-59
2023/04/14 01:55:55;;;;;;;56.95;26.40;;;;;;;;;;6295276;28;20075;-58
2023/04/14 01:58:56;;;;;;;54.75;26.48;;;;;;;;;;6274051;28;20040;-59
2023/04/14 02:02:00;;;;;;;56.15;27.98;;;;;;;;;;6272185;28;20053;-58
2023/04/14 02:05:03;;;;;;;55.65;28.17;;;;;;;;;;6274437;28;20529;-59
2023/04/14 02:08:11;;;;;;;52.03;26.48;;;;;;;;;;6293544;28;20048;-59
2023/04/14 02:11:13;;;;;;;59.78;26.73;;;;;;;;;;6273436;28;20049;-59
2023/04/14 02:14:16;;;;;;;51.08;25.38;;;;;;;;;;6276700;28;20044;-58
2023/04/14 02:17:19;;;;;;;50.20;25.35;;;;;;;;;;6291470;28;20057;-59
2023/04/14 02:20:20;;;;;;;48.42;24.98;;;;;;;;;;6279847;28;20395;-56
2023/04/14 02:23:21;;;;;;;46.78;24.40;;;;;;;;;;6282045;28;20101;-56
2023/04/14 02:26:26;;;;;;;45.83;23.85;;;;;;;;;;6293069;28;20135;-57
2023/04/14 02:29:28;;;;;;;46.10;23.80;;;;;;;;;;6282286;28;20046;-57
2023/04/14 02:32:30;;;;;;;43.58;22.48;;;;;;;;;;6272939;28;20113;-59
2023/04/14 02:35:38;;;;;;;47.65;23.60;;;;;;;;;;6277666;28;20411;-59
2023/04/14 02:38:46;;;;;;;44.28;23.20;;;;;;;;;;6273865;28;20048;-57
2023/04/14 02:41:55;;;;;;;45.05;23.65;;;;;;;;;;6274322;28;20095;-58
2023/04/14 02:45:03;;;;;;;45.83;23.48;;;;;;;;;;6272321;28;20049;-58
2023/04/14 02:48:09;;;;;;;47.72;24.60;;;;;;;;;;6291133;28;20040;-59
2023/04/14 02:51:12;;;;;;;47.05;23.60;;;;;;;;;;6270997;28;20044;-58
2023/04/14 02:54:14;;;;;;;43.40;23.48;;;;;;;;;;6271699;28;20056;-58
2023/04/14 02:57:16;;;;;;;49.17;23.50;;;;;;;;;;6276343;28;20048;-58
2023/04/14 03:00:17;;;;;;;48.80;23.42;;;;;;;;;;6270815;28;20049;-57
2023/04/14 03:03:18;;;;;;;45.60;23.53;;;;;;;;;;6280027;28;20109;-57
2023/04/14 03:06:19;;;;;;;46.40;23.50;;;;;;;;;;6270665;28;20041;-58
2023/04/14 03:09:21;;;;;;;45.35;22.65;;;;;;;;;;6271064;28;20048;-57
2023/04/14 03:12:24;;;;;;;48.97;23.92;;;;;;;;;;6271924;28;20037;-59
2023/04/14 03:15:25;;;;;;;49.75;24.35;;;;;;;;;;6269703;28;20498;-58
2023/04/14 03:18:26;;;;;;;46.58;23.27;;;;;;;;;;6270660;28;20376;-58
2023/04/14 03:21:29;;;;;;;46.25;23.70;;;;;;;;;;6272529;28;20153;-59
2023/04/14 03:24:33;;;;;;;46.53;23.25;;;;;;;;;;6272115;28;20040;-58
2023/04/14 03:27:35;;;;;;;45.60;24.58;;;;;;;;;;6280606;28;20132;-59
2023/04/14 03:30:42;;;;;;;52.03;25.98;;;;;;;;;;6285368;28;20059;-58
2023/04/14 03:33:45;;;;;;;55.10;26.60;;;;;;;;;;6279880;28;20041;-59
2023/04/14 03:36:47;;;;;;;47.75;23.88;;;;;;;;;;6268813;28;20411;-59
2023/04/14 03:39:51;;;;;;;45.40;23.90;;;;;;;;;;6288484;28;20044;-59
2023/04/14 03:42:51;;;;;;;42.65;21.70;;;;;;;;;;6280423;28;20052;-58
2023/04/14 03:45:52;;;;;;;44.42;22.17;;;;;;;;;;6269584;28;20075;-59
2023/04/14 03:48:54;;;;;;;39.50;20.25;;;;;;;;;;6270417;28;20130;-59
2023/04/14 03:52:01;;;;;;;38.90;19.85;;;;;;;;;;6272501;28;20052;-58
2023/04/14 03:55:05;;;;;;;39.90;20.30;;;;;;;;;;6290831;28;20056;-58
2023/04/14 03:58:07;;;;;;;38.60;19.63;;;;;;;;;;6270282;28;20124;-58
2023/04/14 04:01:09;;;;;;;40.95;19.77;;;;;;;;;;6271988;28;20040;-57
2023/04/14 04:04:11;;;;;;;41.08;21.20;;;;;;;;;;6275236;28;20191;-58
2023/04/14 04:07:12;;;;;;;39.20;19.75;;;;;;;;;;6268623;28;20052;-59
2023/04/14 04:10:15;;;;;;;38.53;20.50;;;;;;;;;;6276514;28;20063;-59
2023/04/14 04:13:17;;;;;;;39.83;21.00;;;;;;;;;;6286144;28;20041;-59
2023/04/14 04:16:20;;;;;;;42.85;22.52;;;;;;;;;;6273286;28;20045;-57
2023/04/14 04:19:21;;;;;;;;;;;;;;;;;;6273609;28;20140;-59
2023/04/14 04:22:24;;;;;;;44.58;22.35;;;;;;;;;;6278696;28;19932;-59
2023/04/14 04:25:25;;;;;;;43.22;21.23;;;;;;;;;;6271680;28;20064;-59
2023/04/14 04:28:26;;;;;;;46.85;25.42;;;;;;;;;;6268020;28;20423;-59
2023/04/14 04:31:27;;;;;;;46.65;24.17;;;;;;;;;;6266699;28;20053;-59
